Time;durP1;ratioP1;P1;durP2;ratioP2;P2;SDS_P1;SDS_P2;PMS_P1;PMS_P2;Temp;Humidity;BMP_temperature;BMP_pressure;BME280_temperature;BME280_humidity;BME280_pressure;Samples;Min_cycle;Max_cycle;Signal;HPM_P1;HPM_P2
2023/09/23 00:02:17;;;;;;;0.80;0.80;;;;;;;;;;5115009;28;20559;-64
2023/09/23 00:04:45;;;;;;;0.80;0.80;;;;;;;;;;5114790;28;21020;-64
2023/09/23 00:07:12;;;;;;;0.80;0.80;;;;;;;;;;5115268;28;20520;-64
2023/09/23 00:09:40;;;;;;;0.80;0.80;;;;;;;;;;5114910;28;20441;-64
2023/09/23 00:12:07;;;;;;;0.80;0.80;;;;;;;;;;5115435;28;20441;-64
2023/09/23 00:14:34;;;;;;;0.80;0.80;;;;;;;;;;5114644;28;20462;-63
2023/09/23 00:17:04;;;;;;;0.80;0.80;;;;;;;;;;5115036;28;20840;-64
2023/09/23 00:19:34;;;;;;;1.30;1.30;;;;;;;;;;5114820;28;20432;-64
2023/09/23 00:22:02;;;;;;;0.80;0.80;;;;;;;;;;5114474;28;20475;-63
2023/09/23 00:24:29;;;;;;;0.80;0.80;;;;;;;;;;5114637;28;20477;-63
2023/09/23 00:26:59;;;;;;;0.70;0.70;;;;;;;;;;5115519;28;20435;-63
2023/09/23 00:29:28;;;;;;;0.80;0.80;;;;;;;;;;5114894;28;20531;-64
2023/09/23 00:31:56;;;;;;;0.80;0.80;;;;;;;;;;5114545;28;20440;-63
2023/09/23 00:34:24;;;;;;;1.63;1.57;;;;;;;;;;5114505;28;20473;-63
2023/09/23 00:36:52;;;;;;;0.90;0.90;;;;;;;;;;5114289;28;20522;-63
2023/09/23 00:39:19;;;;;;;0.80;0.80;;;;;;;;;;5114430;28;20445;-64
2023/09/23 00:41:47;;;;;;;0.90;0.90;;;;;;;;;;5114000;28;20581;-63
2023/09/23 00:44:14;;;;;;;0.80;0.80;;;;;;;;;;5114953;28;20441;-63
2023/09/23 00:46:44;;;;;;;0.80;0.80;;;;;;;;;;5114012;28;20462;-63
2023/09/23 00:49:12;;;;;;;0.80;0.80;;;;;;;;;;5114782;28;20445;-63
2023/09/23 00:51:42;;;;;;;0.80;0.80;;;;;;;;;;5114162;28;20440;-63
2023/09/23 00:54:13;;;;;;;0.80;0.80;;;;;;;;;;5114247;28;20448;-63
2023/09/23 00:56:41;;;;;;;0.80;0.80;;;;;;;;;;5114150;28;20797;-63
2023/09/23 00:59:09;;;;;;;0.80;0.80;;;;;;;;;;5114322;28;20441;-63
2023/09/23 01:01:38;;;;;;;0.90;0.90;;;;;;;;;;5113945;28;20490;-63
2023/09/23 01:04:06;;;;;;;0.80;0.80;;;;;;;;;;5114058;28;20455;-63
2023/09/23 01:06:33;;;;;;;0.80;0.80;;;;;;;;;;5113881;28;20434;-63
2023/09/23 01:09:06;;;;;;;0.90;0.90;;;;;;;;;;5113684;28;21028;-63
2023/09/23 01:11:33;;;;;;;0.80;0.80;;;;;;;;;;5113661;28;20534;-63
2023/09/23 01:14:02;;;;;;;0.83;0.83;;;;;;;;;;5113858;28;20436;-63
2023/09/23 01:16:30;;;;;;;0.80;0.80;;;;;;;;;;5113318;28;20457;-63
2023/09/23 01:18:58;;;;;;;0.90;0.90;;;;;;;;;;5113748;28;20446;-63
2023/09/23 01:21:25;;;;;;;0.70;0.70;;;;;;;;;;5113616;28;20478;-63
2023/09/23 01:23:54;;;;;;;0.80;0.80;;;;;;;;;;5113231;28;20440;-63
2023/09/23 01:26:21;;;;;;;0.80;0.80;;;;;;;;;;5113754;28;20433;-63
2023/09/23 01:28:49;;;;;;;0.80;0.80;;;;;;;;;;5113508;28;20922;-63
2023/09/23 01:31:17;;;;;;;0.80;0.80;;;;;;;;;;5113521;28;20871;-63
2023/09/23 01:33:44;;;;;;;0.80;0.80;;;;;;;;;;5113656;28;20914;-63
2023/09/23 01:36:12;;;;;;;0.90;0.90;;;;;;;;;;5113480;28;20488;-63
2023/09/23 01:38:41;;;;;;;0.90;0.90;;;;;;;;;;5114166;28;20445;-63
2023/09/23 01:41:10;;;;;;;0.80;0.80;;;;;;;;;;5113275;28;20962;-63
2023/09/23 01:43:37;;;;;;;0.80;0.80;;;;;;;;;;5113458;28;20447;-63
2023/09/23 01:46:06;;;;;;;0.80;0.80;;;;;;;;;;5113407;28;20466;-63
2023/09/23 01:48:34;;;;;;;0.80;0.80;;;;;;;;;;5113418;28;20473;-65
2023/09/23 01:51:02;;;;;;;0.80;0.80;;;;;;;;;;5112983;28;21004;-62
2023/09/23 01:53:31;;;;;;;0.80;0.80;;;;;;;;;;5113881;28;20462;-62
2023/09/23 01:55:59;;;;;;;0.90;0.90;;;;;;;;;;5113319;28;20849;-61
2023/09/23 01:58:27;;;;;;;0.80;0.80;;;;;;;;;;5113863;28;20517;-61
2023/09/23 02:00:55;;;;;;;0.80;0.80;;;;;;;;;;5113221;28;20524;-62
2023/09/23 02:03:23;;;;;;;0.70;0.70;;;;;;;;;;5113137;28;20576;-61
2023/09/23 02:05:51;;;;;;;0.80;0.80;;;;;;;;;;5113380;28;20447;-61
2023/09/23 02:08:18;;;;;;;0.83;0.83;;;;;;;;;;5113241;28;20825;-61
2023/09/23 02:10:46;;;;;;;0.80;0.80;;;;;;;;;;5113091;28;20517;-62
2023/09/23 02:13:13;;;;;;;0.80;0.80;;;;;;;;;;5112940;28;20441;-62
2023/09/23 02:15:42;;;;;;;0.80;0.80;;;;;;;;;;5113067;28;20439;-62
2023/09/23 02:18:09;;;;;;;0.80;0.80;;;;;;;;;;5113126;28;20435;-61
2023/09/23 02:20:36;;;;;;;0.80;0.80;;;;;;;;;;5113059;28;20442;-62
2023/09/23 02:23:05;;;;;;;0.80;0.80;;;;;;;;;;5112624;28;21048;-61
2023/09/23 02:25:33;;;;;;;0.90;0.90;;;;;;;;;;5113183;28;20474;-61
2023/09/23 02:28:00;;;;;;;0.80;0.80;;;;;;;;;;5116636;28;20489;-62
2023/09/23 02:30:28;;;;;;;0.80;0.80;;;;;;;;;;5117148;28;20439;-61
2023/09/23 02:32:58;;;;;;;0.80;0.80;;;;;;;;;;5116845;28;20445;-61
2023/09/23 02:35:26;;;;;;;0.80;0.80;;;;;;;;;;5117118;28;20457;-61
2023/09/23 02:37:54;;;;;;;0.80;0.80;;;;;;;;;;5116708;28;20857;-61
2023/09/23 02:40:21;;;;;;;0.80;0.80;;;;;;;;;;5117121;28;20446;-61
2023/09/23 02:42:53;;;;;;;0.80;0.80;;;;;;;;;;5116458;28;20891;-62
2023/09/23 02:45:21;;;;;;;0.80;0.80;;;;;;;;;;5116322;28;20435;-61
2023/09/23 02:47:48;;;;;;;0.80;0.80;;;;;;;;;;5116597;28;20430;-62
2023/09/23 02:50:17;;;;;;;0.80;0.80;;;;;;;;;;5116596;28;20796;-61
2023/09/23 02:52:48;;;;;;;0.80;0.80;;;;;;;;;;5116420;28;20435;-62
2023/09/23 02:55:16;;;;;;;0.80;0.80;;;;;;;;;;5116413;28;20470;-61
2023/09/23 02:57:45;;;;;;;0.80;0.80;;;;;;;;;;5116160;28;20436;-61
2023/09/23 03:00:19;;;;;;;0.80;0.80;;;;;;;;;;5116108;28;20435;-61
2023/09/23 03:02:48;;;;;;;0.90;0.90;;;;;;;;;;5116301;28;20467;-61
2023/09/23 03:05:17;;;;;;;0.80;0.80;;;;;;;;;;5116418;28;20869;-61
2023/09/23 03:07:48;;;;;;;0.80;0.80;;;;;;;;;;5116177;28;20439;-61
2023/09/23 03:10:19;;;;;;;0.80;0.80;;;;;;;;;;5116531;28;20863;-62
2023/09/23 03:12:51;;;;;;;0.80;0.80;;;;;;;;;;5116368;28;20486;-63
2023/09/23 03:15:22;;;;;;;0.80;0.80;;;;;;;;;;5115891;28;20531;-61
2023/09/23 03:17:51;;;;;;;0.80;0.80;;;;;;;;;;5116182;28;20459;-61
2023/09/23 03:20:26;;;;;;;0.90;0.90;;;;;;;;;;5115970;28;20445;-62
2023/09/23 03:22:53;;;;;;;0.90;0.90;;;;;;;;;;5115950;28;20486;-62
2023/09/23 03:25:21;;;;;;;0.90;0.90;;;;;;;;;;5115770;28;20858;-63
2023/09/23 03:27:49;;;;;;;0.80;0.80;;;;;;;;;;5115891;28;20470;-62
2023/09/23 03:30:17;;;;;;;0.80;0.80;;;;;;;;;;5115469;28;20429;-62
2023/09/23 03:32:45;;;;;;;0.80;0.80;;;;;;;;;;5115635;28;20467;-62
2023/09/23 03:35:16;;;;;;;0.83;0.83;;;;;;;;;;5115492;28;20439;-62
2023/09/23 03:37:47;;;;;;;0.80;0.80;;;;;;;;;;5114848;28;20423;-61
2023/09/23 03:40:19;;;;;;;0.80;0.80;;;;;;;;;;5115264;28;20434;-62
2023/09/23 03:42:48;;;;;;;0.80;0.80;;;;;;;;;;5115150;28;20980;-62
2023/09/23 03:45:18;;;;;;;0.90;0.90;;;;;;;;;;5115220;28;20790;-61
2023/09/23 03:47:45;;;;;;;0.77;0.77;;;;;;;;;;5115238;28;20804;-61
2023/09/23 03:50:12;;;;;;;0.80;0.80;;;;;;;;;;5115085;28;20439;-61
2023/09/23 03:52:40;;;;;;;0.93;0.93;;;;;;;;;;5115158;28;20843;-62
2023/09/23 03:55:11;;;;;;;0.80;0.80;;;;;;;;;;5111668;28;20928;-62
2023/09/23 03:57:38;;;;;;;0.80;0.80;;;;;;;;;;5112558;28;20443;-62
2023/09/23 04:00:14;;;;;;;0.80;0.80;;;;;;;;;;5112662;28;20440;-61
2023/09/23 04:02:41;;;;;;;0.80;0.80;;;;;;;;;;5113109;28;20985;-62
2023/09/23 04:05:08;;;;;;;0.80;0.80;;;;;;;;;;5113539;28;20804;-62
2023/09/23 04:07:39;;;;;;;0.80;0.80;;;;;;;;;;5113051;28;20471;-62
2023/09/23 04:10:09;;;;;;;0.80;0.80;;;;;;;;;;5113875;28;20430;-61
2023/09/23 04:12:37;;;;;;;0.80;0.80;;;;;;;;;;5113706;28;20444;-62
2023/09/23 04:15:05;;;;;;;3.30;3.03;;;;;;;;;;5114422;28;20865;-61
2023/09/23 04:17:32;;;;;;;0.90;0.90;;;;;;;;;;5113773;28;20461;-62
2023/09/23 04:20:07;;;;;;;1.00;1.00;;;;;;;;;;5114186;28;20525;-61
2023/09/23 04:22:36;;;;;;;0.80;0.80;;;;;;;;;;5113970;28;20762;-62
2023/09/23 04:25:04;;;;;;;0.80;0.80;;;;;;;;;;5126115;27;20471;-62
2023/09/23 04:27:33;;;;;;;0.80;0.80;;;;;;;;;;5134461;27;20789;-61
2023/09/23 04:30:01;;;;;;;0.80;0.80;;;;;;;;;;5134837;27;20442;-62
2023/09/23 04:32:28;;;;;;;0.80;0.80;;;;;;;;;;5134374;27;20447;-62
2023/09/23 04:34:56;;;;;;;0.80;0.80;;;;;;;;;;5134900;27;20846;-61
2023/09/23 04:37:24;;;;;;;0.90;0.90;;;;;;;;;;5134521;27;20447;-62
2023/09/23 04:39:52;;;;;;;0.80;0.80;;;;;;;;;;5134505;27;20471;-61
2023/09/23 04:42:21;;;;;;;0.80;0.80;;;;;;;;;;5134458;27;20450;-62
2023/09/23 04:44:49;;;;;;;0.80;0.80;;;;;;;;;;5134506;27;20500;-62
2023/09/23 04:47:18;;;;;;;0.80;0.80;;;;;;;;;;5134325;27;20496;-62
2023/09/23 04:49:45;;;;;;;0.80;0.80;;;;;;;;;;5133377;27;20485;-62
2023/09/23 04:52:13;;;;;;;0.80;0.80;;;;;;;;;;5134108;27;20469;-62
2023/09/23 04:54:41;;;;;;;0.80;0.80;;;;;;;;;;5134445;27;20529;-62
2023/09/23 04:57:09;;;;;;;0.80;0.80;;;;;;;;;;5134200;27;20524;-62
2023/09/23 04:59:36;;;;;;;0.80;0.80;;;;;;;;;;5134286;27;20443;-63
2023/09/23 05:02:05;;;;;;;1.20;1.20;;;;;;;;;;5134503;27;20505;-63
2023/09/23 05:04:33;;;;;;;0.80;0.80;;;;;;;;;;5134024;27;20480;-63
2023/09/23 05:07:01;;;;;;;0.90;0.90;;;;;;;;;;5134176;27;20482;-63
2023/09/23 05:09:28;;;;;;;0.70;0.70;;;;;;;;;;5133556;27;20436;-64
2023/09/23 05:11:55;;;;;;;0.80;0.80;;;;;;;;;;5133919;27;20447;-64
2023/09/23 05:14:25;;;;;;;0.80;0.80;;;;;;;;;;5133788;27;20447;-64
2023/09/23 05:16:52;;;;;;;1.73;1.63;;;;;;;;;;5133559;27;20443;-64
2023/09/23 05:19:21;;;;;;;0.90;0.90;;;;;;;;;;5133293;27;20521;-63
2023/09/23 05:21:50;;;;;;;0.80;0.80;;;;;;;;;;5133494;27;20450;-63
2023/09/23 05:24:17;;;;;;;1.40;1.30;;;;;;;;;;5132998;27;20851;-63
2023/09/23 05:26:44;;;;;;;0.80;0.80;;;;;;;;;;5133683;27;20476;-63
2023/09/23 05:29:11;;;;;;;1.53;1.47;;;;;;;;;;5133261;27;20443;-63
2023/09/23 05:31:38;;;;;;;0.90;0.90;;;;;;;;;;5133940;27;20766;-63
2023/09/23 05:34:06;;;;;;;0.80;0.80;;;;;;;;;;5133609;27;20524;-63
2023/09/23 05:36:35;;;;;;;1.70;1.60;;;;;;;;;;5133243;27;20438;-63
2023/09/23 05:39:04;;;;;;;0.80;0.80;;;;;;;;;;5133093;28;20469;-63
2023/09/23 05:41:31;;;;;;;0.80;0.80;;;;;;;;;;5133643;28;20845;-64
2023/09/23 05:43:59;;;;;;;0.80;0.80;;;;;;;;;;5133844;28;20482;-63
2023/09/23 05:46:27;;;;;;;0.80;0.80;;;;;;;;;;5133710;28;20440;-64
2023/09/23 05:48:54;;;;;;;0.80;0.80;;;;;;;;;;5133668;28;20539;-63
2023/09/23 05:51:22;;;;;;;0.80;0.80;;;;;;;;;;5133428;28;20521;-64
2023/09/23 05:53:50;;;;;;;1.10;1.10;;;;;;;;;;5133838;28;20461;-63
2023/09/23 05:56:17;;;;;;;0.80;0.80;;;;;;;;;;5133573;28;20526;-63
2023/09/23 05:58:46;;;;;;;1.07;1.07;;;;;;;;;;5133674;28;20556;-63
2023/09/23 06:01:13;;;;;;;0.80;0.80;;;;;;;;;;5136753;27;20469;-63
2023/09/23 06:03:41;;;;;;;0.80;0.80;;;;;;;;;;5137756;27;20507;-66
2023/09/23 06:06:09;;;;;;;0.80;0.80;;;;;;;;;;5138135;27;20441;-62
2023/09/23 06:08:36;;;;;;;0.80;0.80;;;;;;;;;;5137149;27;20538;-64
2023/09/23 06:11:05;;;;;;;0.80;0.80;;;;;;;;;;5137238;27;20439;-63
2023/09/23 06:13:32;;;;;;;0.80;0.80;;;;;;;;;;5137500;27;20444;-62
2023/09/23 06:16:02;;;;;;;0.80;0.80;;;;;;;;;;5137457;27;20442;-63
2023/09/23 06:18:29;;;;;;;0.80;0.80;;;;;;;;;;5137991;27;20500;-63
2023/09/23 06:20:59;;;;;;;0.83;0.83;;;;;;;;;;5137346;27;20966;-63
2023/09/23 06:23:26;;;;;;;1.07;1.00;;;;;;;;;;5137695;27;20478;-63
2023/09/23 06:25:54;;;;;;;0.80;0.80;;;;;;;;;;5136952;27;20559;-62
2023/09/23 06:28:22;;;;;;;0.80;0.80;;;;;;;;;;5137087;27;20483;-64
2023/09/23 06:30:50;;;;;;;0.80;0.80;;;;;;;;;;5136453;27;20463;-63
2023/09/23 06:33:17;;;;;;;0.80;0.80;;;;;;;;;;5136901;27;20426;-65
2023/09/23 06:35:45;;;;;;;0.80;0.80;;;;;;;;;;5137315;27;20441;-65
2023/09/23 06:38:12;;;;;;;0.70;0.70;;;;;;;;;;5137164;27;20437;-65
2023/09/23 06:40:40;;;;;;;0.80;0.80;;;;;;;;;;5137031;27;20450;-65
2023/09/23 06:43:07;;;;;;;0.80;0.80;;;;;;;;;;5135644;27;20492;-65
2023/09/23 06:45:36;;;;;;;0.97;0.97;;;;;;;;;;5136859;27;20466;-65
2023/09/23 06:48:03;;;;;;;0.80;0.80;;;;;;;;;;5137181;27;20442;-64
2023/09/23 06:50:31;;;;;;;0.80;0.80;;;;;;;;;;5137024;27;20465;-65
2023/09/23 06:52:58;;;;;;;0.80;0.80;;;;;;;;;;5136856;27;20538;-65
2023/09/23 06:55:25;;;;;;;0.80;0.80;;;;;;;;;;5135811;27;20442;-65
2023/09/23 06:57:52;;;;;;;0.80;0.80;;;;;;;;;;5136934;27;20493;-65
2023/09/23 07:00:20;;;;;;;0.80;0.80;;;;;;;;;;5136802;27;20451;-65
2023/09/23 07:02:49;;;;;;;0.80;0.80;;;;;;;;;;5136289;27;20447;-65
2023/09/23 07:05:16;;;;;;;0.80;0.80;;;;;;;;;;5136138;27;20536;-65
2023/09/23 07:07:43;;;;;;;0.80;0.80;;;;;;;;;;5137138;27;20856;-65
2023/09/23 07:10:11;;;;;;;0.77;0.77;;;;;;;;;;5136673;27;20445;-65
2023/09/23 07:12:38;;;;;;;0.70;0.70;;;;;;;;;;5135782;27;20472;-66
2023/09/23 07:15:06;;;;;;;0.90;0.90;;;;;;;;;;5135414;27;20451;-66
2023/09/23 07:17:34;;;;;;;0.70;0.70;;;;;;;;;;5135954;27;20936;-66
2023/09/23 07:20:02;;;;;;;0.90;0.90;;;;;;;;;;5135771;27;20566;-65
2023/09/23 07:22:30;;;;;;;0.80;0.80;;;;;;;;;;5135801;27;20530;-65
2023/09/23 07:24:57;;;;;;;0.90;0.90;;;;;;;;;;5135514;27;20493;-66
2023/09/23 07:27:24;;;;;;;0.90;0.90;;;;;;;;;;5135845;27;20528;-65
2023/09/23 07:29:51;;;;;;;0.80;0.80;;;;;;;;;;5136013;27;20954;-66
2023/09/23 07:32:19;;;;;;;0.80;0.80;;;;;;;;;;5135989;27;20657;-65
2023/09/23 07:34:46;;;;;;;0.93;0.93;;;;;;;;;;5135927;27;20439;-66
2023/09/23 07:37:15;;;;;;;0.80;0.80;;;;;;;;;;5135809;27;20960;-66
2023/09/23 07:39:42;;;;;;;0.80;0.80;;;;;;;;;;5135789;27;20445;-66
2023/09/23 07:42:09;;;;;;;0.80;0.80;;;;;;;;;;5135403;27;20451;-67
2023/09/23 07:44:36;;;;;;;0.80;0.80;;;;;;;;;;5135622;27;20966;-67
2023/09/23 07:47:04;;;;;;;1.00;1.00;;;;;;;;;;5135952;27;20437;-66
2023/09/23 07:49:31;;;;;;;0.70;0.70;;;;;;;;;;5135474;27;20534;-66
2023/09/23 07:51:58;;;;;;;0.70;0.70;;;;;;;;;;5134888;27;20900;-66
2023/09/23 07:54:27;;;;;;;0.70;0.70;;;;;;;;;;5136035;27;20782;-66
2023/09/23 07:56:54;;;;;;;0.80;0.80;;;;;;;;;;5135406;27;20896;-66
2023/09/23 07:59:21;;;;;;;0.80;0.80;;;;;;;;;;5135614;27;20531;-66
2023/09/23 08:01:49;;;;;;;0.77;0.77;;;;;;;;;;5135039;27;20538;-67
2023/09/23 08:04:16;;;;;;;0.80;0.80;;;;;;;;;;5134813;27;20487;-67
2023/09/23 08:06:43;;;;;;;0.77;0.77;;;;;;;;;;5134832;27;20439;-66
2023/09/23 08:09:10;;;;;;;0.70;0.70;;;;;;;;;;5135262;27;20433;-66
2023/09/23 08:11:39;;;;;;;0.80;0.80;;;;;;;;;;5128306;27;20444;-66
2023/09/23 08:14:06;;;;;;;0.77;0.77;;;;;;;;;;5114992;28;20444;-66
2023/09/23 08:16:33;;;;;;;0.90;0.90;;;;;;;;;;5114586;28;20530;-66
2023/09/23 08:19:01;;;;;;;0.80;0.80;;;;;;;;;;5113479;28;20906;-66
2023/09/23 08:21:29;;;;;;;0.70;0.70;;;;;;;;;;5114578;28;20444;-67
2023/09/23 08:23:57;;;;;;;1.00;1.00;;;;;;;;;;5113678;28;20537;-66
2023/09/23 08:26:24;;;;;;;0.80;0.80;;;;;;;;;;5114206;28;20431;-67
2023/09/23 08:28:53;;;;;;;0.70;0.70;;;;;;;;;;5114351;28;20753;-66
2023/09/23 08:31:21;;;;;;;0.80;0.80;;;;;;;;;;5114400;28;20462;-66
2023/09/23 08:33:48;;;;;;;0.80;0.80;;;;;;;;;;5114094;28;20449;-67
2023/09/23 08:36:15;;;;;;;0.80;0.80;;;;;;;;;;5113861;28;20454;-67
2023/09/23 08:38:43;;;;;;;0.80;0.80;;;;;;;;;;5114079;28;20442;-66
2023/09/23 08:41:12;;;;;;;0.80;0.80;;;;;;;;;;5113872;28;20823;-66
2023/09/23 08:43:44;;;;;;;0.80;0.80;;;;;;;;;;5112992;28;20937;-66
2023/09/23 08:46:13;;;;;;;0.80;0.80;;;;;;;;;;5113641;28;20430;-66
2023/09/23 08:48:40;;;;;;;0.80;0.80;;;;;;;;;;5112698;28;20524;-66
2023/09/23 08:51:08;;;;;;;0.80;0.80;;;;;;;;;;5114263;28;20451;-66
2023/09/23 08:53:39;;;;;;;0.80;0.80;;;;;;;;;;5114678;28;20442;-66
2023/09/23 08:56:07;;;;;;;0.80;0.80;;;;;;;;;;5114399;28;20425;-66
2023/09/23 08:58:34;;;;;;;0.80;0.80;;;;;;;;;;5113825;28;20951;-66
2023/09/23 09:01:02;;;;;;;0.80;0.80;;;;;;;;;;5114065;28;20521;-66
2023/09/23 09:03:31;;;;;;;0.80;0.80;;;;;;;;;;5113900;28;20435;-66
2023/09/23 09:06:00;;;;;;;0.90;0.90;;;;;;;;;;5113965;28;20834;-65
2023/09/23 09:08:27;;;;;;;0.90;0.90;;;;;;;;;;5113565;28;20437;-66
2023/09/23 09:10:59;;;;;;;0.80;0.80;;;;;;;;;;5113933;28;20442;-66
2023/09/23 09:13:26;;;;;;;0.80;0.80;;;;;;;;;;5113930;28;20433;-66
2023/09/23 09:15:54;;;;;;;0.80;0.80;;;;;;;;;;5113753;28;20437;-66
2023/09/23 09:18:21;;;;;;;0.80;0.80;;;;;;;;;;5113745;28;20450;-67
2023/09/23 09:20:50;;;;;;;0.80;0.80;;;;;;;;;;5113767;28;20928;-67
2023/09/23 09:23:17;;;;;;;0.80;0.80;;;;;;;;;;5113560;28;20463;-67
2023/09/23 09:25:47;;;;;;;0.80;0.80;;;;;;;;;;5113647;28;20490;-66
2023/09/23 09:28:16;;;;;;;0.70;0.70;;;;;;;;;;5112466;28;20480;-66
2023/09/23 09:30:45;;;;;;;0.80;0.80;;;;;;;;;;5112844;28;20438;-65
2023/09/23 09:33:12;;;;;;;0.80;0.80;;;;;;;;;;5112811;28;20511;-65
2023/09/23 09:35:41;;;;;;;0.80;0.80;;;;;;;;;;5112612;28;20463;-65
2023/09/23 09:38:12;;;;;;;0.83;0.83;;;;;;;;;;5113076;28;20798;-65
2023/09/23 09:40:39;;;;;;;0.77;0.77;;;;;;;;;;5112908;28;20422;-65
2023/09/23 09:43:08;;;;;;;0.80;0.80;;;;;;;;;;5113072;28;20460;-65
2023/09/23 09:45:40;;;;;;;0.70;0.70;;;;;;;;;;5112971;28;20478;-65
2023/09/23 09:48:09;;;;;;;0.80;0.80;;;;;;;;;;5113274;28;20475;-65
2023/09/23 09:50:38;;;;;;;0.80;0.80;;;;;;;;;;5113012;28;20524;-65
2023/09/23 09:53:06;;;;;;;0.80;0.80;;;;;;;;;;5113154;28;20447;-65
2023/09/23 09:55:35;;;;;;;0.80;0.80;;;;;;;;;;5113310;28;20441;-65
2023/09/23 09:58:02;;;;;;;0.80;0.80;;;;;;;;;;5112757;28;20537;-66
2023/09/23 10:00:30;;;;;;;0.73;0.73;;;;;;;;;;5112477;28;21046;-65
2023/09/23 10:02:58;;;;;;;0.70;0.70;;;;;;;;;;5112811;28;20453;-65
2023/09/23 10:05:32;;;;;;;0.80;0.80;;;;;;;;;;5112889;28;20495;-65
2023/09/23 10:08:00;;;;;;;0.80;0.80;;;;;;;;;;5113111;28;20485;-65
2023/09/23 10:10:37;;;;;;;0.70;0.70;;;;;;;;;;5112999;28;20433;-65
2023/09/23 10:13:10;;;;;;;0.80;0.80;;;;;;;;;;5113020;28;20432;-65
2023/09/23 10:15:40;;;;;;;0.80;0.80;;;;;;;;;;5112601;28;20442;-65
2023/09/23 10:18:12;;;;;;;0.80;0.80;;;;;;;;;;5112334;28;20910;-65
2023/09/23 10:20:43;;;;;;;0.77;0.77;;;;;;;;;;5112695;28;20554;-64
2023/09/23 10:23:11;;;;;;;0.80;0.80;;;;;;;;;;5112975;28;20452;-65
2023/09/23 10:25:42;;;;;;;0.70;0.70;;;;;;;;;;5112682;28;20994;-66
2023/09/23 10:28:20;;;;;;;0.70;0.70;;;;;;;;;;5112909;28;20445;-66
2023/09/23 10:30:57;;;;;;;0.80;0.80;;;;;;;;;;5112744;28;20432;-66
2023/09/23 10:33:25;;;;;;;0.80;0.80;;;;;;;;;;5113413;28;20458;-65
2023/09/23 10:35:52;;;;;;;0.70;0.70;;;;;;;;;;5112363;28;20449;-65
2023/09/23 10:38:22;;;;;;;0.80;0.80;;;;;;;;;;5112225;28;20450;-66
2023/09/23 10:40:52;;;;;;;0.70;0.70;;;;;;;;;;5112409;28;20443;-65
2023/09/23 10:43:20;;;;;;;0.80;0.80;;;;;;;;;;5113314;28;20468;-65
2023/09/23 10:45:48;;;;;;;0.80;0.80;;;;;;;;;;5113049;28;20477;-65
2023/09/23 10:48:16;;;;;;;0.73;0.73;;;;;;;;;;5115559;28;20436;-65
2023/09/23 10:50:44;;;;;;;0.80;0.80;;;;;;;;;;5114965;28;20440;-66
2023/09/23 10:53:12;;;;;;;1.10;1.10;;;;;;;;;;5115178;28;20455;-65
2023/09/23 10:55:40;;;;;;;0.87;0.87;;;;;;;;;;5115800;28;20441;-65
2023/09/23 10:58:09;;;;;;;0.70;0.70;;;;;;;;;;5115018;28;20444;-65
2023/09/23 11:00:37;;;;;;;0.80;0.80;;;;;;;;;;5116288;28;20529;-65
2023/09/23 11:03:09;;;;;;;0.80;0.80;;;;;;;;;;5115722;28;20441;-65
2023/09/23 11:05:37;;;;;;;0.70;0.70;;;;;;;;;;5116139;28;20553;-65
2023/09/23 11:08:05;;;;;;;0.70;0.70;;;;;;;;;;5115640;28;20483;-65
2023/09/23 11:10:33;;;;;;;0.70;0.70;;;;;;;;;;5116220;28;20440;-65
2023/09/23 11:13:00;;;;;;;0.80;0.80;;;;;;;;;;5116032;28;20445;-65
2023/09/23 11:15:31;;;;;;;0.80;0.80;;;;;;;;;;5115900;28;20507;-65
2023/09/23 11:17:58;;;;;;;0.80;0.80;;;;;;;;;;5114795;28;20967;-65
2023/09/23 11:20:31;;;;;;;0.80;0.80;;;;;;;;;;5115877;28;20432;-66
2023/09/23 11:23:00;;;;;;;0.70;0.70;;;;;;;;;;5115483;28;20539;-66
2023/09/23 11:25:27;;;;;;;0.70;0.70;;;;;;;;;;5115875;28;20494;-66
2023/09/23 11:27:58;;;;;;;0.70;0.70;;;;;;;;;;5115191;28;20436;-65
2023/09/23 11:30:25;;;;;;;0.70;0.70;;;;;;;;;;5115538;28;20422;-66
2023/09/23 11:32:56;;;;;;;0.80;0.80;;;;;;;;;;5115138;28;20440;-65
2023/09/23 11:35:23;;;;;;;0.80;0.80;;;;;;;;;;5115296;28;20427;-65
2023/09/23 11:37:53;;;;;;;0.80;0.80;;;;;;;;;;5114195;28;20434;-66
2023/09/23 11:40:22;;;;;;;0.80;0.80;;;;;;;;;;5114891;28;20430;-66
2023/09/23 11:42:50;;;;;;;0.80;0.80;;;;;;;;;;5115253;28;20831;-66
2023/09/23 11:45:17;;;;;;;0.70;0.70;;;;;;;;;;5115163;28;20467;-66
2023/09/23 11:47:44;;;;;;;0.70;0.70;;;;;;;;;;5115034;28;20433;-65
2023/09/23 11:50:13;;;;;;;0.70;0.70;;;;;;;;;;5115326;28;20887;-66
2023/09/23 11:52:40;;;;;;;0.80;0.80;;;;;;;;;;5115086;28;20475;-65
2023/09/23 11:55:09;;;;;;;0.80;0.80;;;;;;;;;;5115533;28;20476;-66
2023/09/23 11:57:37;;;;;;;0.80;0.80;;;;;;;;;;5114923;28;20460;-66
2023/09/23 12:00:08;;;;;;;0.70;0.70;;;;;;;;;;5114832;28;20872;-65
2023/09/23 12:02:35;;;;;;;0.80;0.80;;;;;;;;;;5115253;28;20433;-65
2023/09/23 12:05:06;;;;;;;0.70;0.70;;;;;;;;;;5115170;28;20569;-66
2023/09/23 12:07:34;;;;;;;0.70;0.70;;;;;;;;;;5115472;28;20445;-65
2023/09/23 12:10:03;;;;;;;0.70;0.70;;;;;;;;;;5115241;28;20442;-65
2023/09/23 12:12:30;;;;;;;0.70;0.70;;;;;;;;;;5115003;28;20478;-65
2023/09/23 12:14:57;;;;;;;0.80;0.80;;;;;;;;;;5114568;28;20543;-65
2023/09/23 12:17:24;;;;;;;0.70;0.70;;;;;;;;;;5114957;28;20522;-65
2023/09/23 12:19:52;;;;;;;0.80;0.80;;;;;;;;;;5114841;28;20553;-66
2023/09/23 12:22:20;;;;;;;0.70;0.70;;;;;;;;;;5114483;28;20441;-66
2023/09/23 12:24:52;;;;;;;0.70;0.70;;;;;;;;;;5114370;28;20478;-66
2023/09/23 12:27:21;;;;;;;0.70;0.70;;;;;;;;;;5114839;28;20485;-65
2023/09/23 12:29:48;;;;;;;0.70;0.70;;;;;;;;;;5114613;28;20853;-65
2023/09/23 12:32:16;;;;;;;0.70;0.70;;;;;;;;;;5114724;28;20436;-65
2023/09/23 12:34:44;;;;;;;0.70;0.70;;;;;;;;;;5114236;28;20524;-66
2023/09/23 12:37:11;;;;;;;0.70;0.70;;;;;;;;;;5114736;28;20438;-66
2023/09/23 12:39:39;;;;;;;0.70;0.70;;;;;;;;;;5112325;28;20484;-65
2023/09/23 12:42:07;;;;;;;0.70;0.70;;;;;;;;;;5114221;28;20442;-65
2023/09/23 12:44:34;;;;;;;0.80;0.80;;;;;;;;;;5113316;28;20469;-65
2023/09/23 12:47:02;;;;;;;0.70;0.70;;;;;;;;;;5113356;28;21017;-65
2023/09/23 12:49:30;;;;;;;0.70;0.70;;;;;;;;;;5113857;28;20497;-66
2023/09/23 12:51:56;;;;;;;0.70;0.70;;;;;;;;;;5113738;28;20438;-65
2023/09/23 12:54:24;;;;;;;0.80;0.80;;;;;;;;;;5113586;28;20513;-65
2023/09/23 12:56:51;;;;;;;0.70;0.70;;;;;;;;;;5113404;28;20437;-65
2023/09/23 12:59:20;;;;;;;0.80;0.80;;;;;;;;;;5113176;28;20954;-65
2023/09/23 13:01:47;;;;;;;0.70;0.70;;;;;;;;;;5113355;28;20520;-65
2023/09/23 13:04:15;;;;;;;0.70;0.70;;;;;;;;;;5113612;28;20482;-65
2023/09/23 13:06:42;;;;;;;0.70;0.70;;;;;;;;;;5113111;28;21050;-65
2023/09/23 13:09:09;;;;;;;0.70;0.70;;;;;;;;;;5112876;28;20494;-65
2023/09/23 13:11:37;;;;;;;0.90;0.90;;;;;;;;;;5113460;28;20441;-65
2023/09/23 13:14:04;;;;;;;0.70;0.70;;;;;;;;;;5113142;28;20438;-65
2023/09/23 13:16:32;;;;;;;0.70;0.70;;;;;;;;;;5113148;28;20441;-65
2023/09/23 13:19:00;;;;;;;0.70;0.70;;;;;;;;;;5113628;28;20521;-65
2023/09/23 13:21:27;;;;;;;0.70;0.70;;;;;;;;;;5113603;28;20526;-65
2023/09/23 13:23:55;;;;;;;0.70;0.70;;;;;;;;;;5112622;28;20444;-65
2023/09/23 13:26:22;;;;;;;0.70;0.70;;;;;;;;;;5112361;28;20572;-64
2023/09/23 13:28:49;;;;;;;0.70;0.70;;;;;;;;;;5112320;28;20443;-64
2023/09/23 13:31:16;;;;;;;0.80;0.80;;;;;;;;;;5113445;28;20441;-64
2023/09/23 13:33:45;;;;;;;0.70;0.70;;;;;;;;;;5112784;28;20449;-64
2023/09/23 13:36:12;;;;;;;0.80;0.80;;;;;;;;;;5112701;28;20872;-64
2023/09/23 13:38:40;;;;;;;0.70;0.70;;;;;;;;;;5113489;28;20803;-64
2023/09/23 13:41:07;;;;;;;0.70;0.70;;;;;;;;;;5113057;28;20441;-64
2023/09/23 13:43:34;;;;;;;0.80;0.80;;;;;;;;;;5113449;28;20861;-64
2023/09/23 13:46:01;;;;;;;0.80;0.80;;;;;;;;;;5112684;28;20485;-63
2023/09/23 13:48:29;;;;;;;0.80;0.80;;;;;;;;;;5112945;28;20443;-64
2023/09/23 13:50:57;;;;;;;0.70;0.70;;;;;;;;;;5113284;28;20447;-63
2023/09/23 13:53:24;;;;;;;0.70;0.70;;;;;;;;;;5112871;28;20539;-64
2023/09/23 13:55:52;;;;;;;0.70;0.70;;;;;;;;;;5112397;28;20453;-64
2023/09/23 13:58:19;;;;;;;0.70;0.70;;;;;;;;;;5111970;28;20961;-64
2023/09/23 14:00:46;;;;;;;0.80;0.80;;;;;;;;;;5113085;28;20520;-64
2023/09/23 14:03:16;;;;;;;0.70;0.70;;;;;;;;;;5112821;28;20803;-64
2023/09/23 14:05:43;;;;;;;0.80;0.80;;;;;;;;;;5112259;28;20563;-64
2023/09/23 14:08:12;;;;;;;0.80;0.80;;;;;;;;;;5112526;28;20447;-64
2023/09/23 14:10:39;;;;;;;0.80;0.80;;;;;;;;;;5112684;28;20473;-64
2023/09/23 14:13:07;;;;;;;0.70;0.70;;;;;;;;;;5112949;28;20526;-64
2023/09/23 14:15:34;;;;;;;0.70;0.70;;;;;;;;;;5112416;28;20537;-64
2023/09/23 14:18:01;;;;;;;0.70;0.70;;;;;;;;;;5112500;28;20984;-64
2023/09/23 14:20:29;;;;;;;0.97;0.97;;;;;;;;;;5113209;28;20842;-64
2023/09/23 14:22:56;;;;;;;0.80;0.80;;;;;;;;;;5116090;28;20479;-64
2023/09/23 14:25:24;;;;;;;0.70;0.70;;;;;;;;;;5116421;28;20874;-64
2023/09/23 14:27:52;;;;;;;0.70;0.70;;;;;;;;;;5116255;28;20441;-64
2023/09/23 14:30:19;;;;;;;0.80;0.80;;;;;;;;;;5116645;28;20442;-64
2023/09/23 14:32:47;;;;;;;0.70;0.70;;;;;;;;;;5116444;28;20533;-64
2023/09/23 14:35:14;;;;;;;0.70;0.70;;;;;;;;;;5116717;28;20520;-64
2023/09/23 14:37:41;;;;;;;0.70;0.70;;;;;;;;;;5116315;27;20533;-64
2023/09/23 14:40:10;;;;;;;0.70;0.70;;;;;;;;;;5116460;28;20452;-64
2023/09/23 14:42:38;;;;;;;0.80;0.80;;;;;;;;;;5116673;28;20834;-64
2023/09/23 14:45:06;;;;;;;0.70;0.70;;;;;;;;;;5116946;28;20447;-64
2023/09/23 14:47:33;;;;;;;0.70;0.70;;;;;;;;;;5116374;28;20584;-64
2023/09/23 14:50:00;;;;;;;0.80;0.80;;;;;;;;;;5116282;28;20449;-64